sensor_id;sensor_type;location;lat;lon;timestamp;temperature;humidity
2054;DHT22;1032;52.542;13.440;2023-05-07T00:01:34;10.20;99.90
2054;DHT22;1032;52.542;13.440;2023-05-07T00:04:01;10.10;99.90
2054;DHT22;1032;52.542;13.440;2023-05-07T00:06:28;10.80;99.90
2054;DHT22;1032;52.542;13.440;2023-05-07T00:08:56;10.40;99.90
2054;DHT22;1032;52.542;13.440;2023-05-07T00:11:23;10.60;99.90
2054;DHT22;1032;52.542;13.440;2023-05-07T00:13:49;10.50;99.90
2054;DHT22;1032;52.542;13.440;2023-05-07T00:16:16;10.60;99.90
2054;DHT22;1032;52.542;13.440;2023-05-07T00:18:46;10.70;99.90
2054;DHT22;1032;52.542;13.440;2023-05-07T00:21:12;10.80;99.90
2054;DHT22;1032;52.542;13.440;2023-05-07T00:23:39;10.70;99.90
2054;DHT22;1032;52.542;13.440;2023-05-07T00:26:05;10.30;99.90
2054;DHT22;1032;52.542;13.440;2023-05-07T00:28:32;10.30;99.90
2054;DHT22;1032;52.542;13.440;2023-05-07T00:30:59;10.80;99.90
2054;DHT22;1032;52.542;13.440;2023-05-07T00:33:26;10.50;99.90
2054;DHT22;1032;52.542;13.440;2023-05-07T00:35:54;10.70;99.90
2054;DHT22;1032;52.542;13.440;2023-05-07T00:38:20;10.40;99.90
2054;DHT22;1032;52.542;13.440;2023-05-07T00:40:47;10.40;99.90
2054;DHT22;1032;52.542;13.440;2023-05-07T00:43:14;10.70;99.90
2054;DHT22;1032;52.542;13.440;2023-05-07T00:45:40;10.40;99.90
2054;DHT22;1032;52.542;13.440;2023-05-07T00:48:07;10.70;99.90
2054;DHT22;1032;52.542;13.440;2023-05-07T00:50:33;10.70;99.90
2054;DHT22;1032;52.542;13.440;2023-05-07T00:53:01;10.50;99.90
2054;DHT22;1032;52.542;13.440;2023-05-07T00:55:29;10.60;99.90
2054;DHT22;1032;52.542;13.440;2023-05-07T00:57:56;10.40;99.90
2054;DHT22;1032;52.542;13.440;2023-05-07T01:00:23;10.90;99.90
2054;DHT22;1032;52.542;13.440;2023-05-07T01:02:50;10.60;99.90
2054;DHT22;1032;52.542;13.440;2023-05-07T01:05:18;10.70;99.90
2054;DHT22;1032;52.542;13.440;2023-05-07T01:07:45;10.80;99.90
2054;DHT22;1032;52.542;13.440;2023-05-07T01:10:14;10.10;99.90
2054;DHT22;1032;52.542;13.440;2023-05-07T01:12:42;10.40;99.90
2054;DHT22;1032;52.542;13.440;2023-05-07T01:15:10;10.40;99.90
2054;DHT22;1032;52.542;13.440;2023-05-07T01:17:39;10.90;99.90
2054;DHT22;1032;52.542;13.440;2023-05-07T01:20:10;10.60;99.90
2054;DHT22;1032;52.542;13.440;2023-05-07T01:22:38;10.60;99.90
2054;DHT22;1032;52.542;13.440;2023-05-07T01:25:07;11.00;99.90
2054;DHT22;1032;52.542;13.440;2023-05-07T01:27:36;10.70;99.90
2054;DHT22;1032;52.542;13.440;2023-05-07T01:30:03;10.60;99.90
2054;DHT22;1032;52.542;13.440;2023-05-07T01:32:35;10.50;99.90
2054;DHT22;1032;52.542;13.440;2023-05-07T01:35:04;10.50;99.90
2054;DHT22;1032;52.542;13.440;2023-05-07T01:37:32;10.60;99.90
2054;DHT22;1032;52.542;13.440;2023-05-07T01:40:01;10.50;99.90
2054;DHT22;1032;52.542;13.440;2023-05-07T01:42:29;10.60;99.90
2054;DHT22;1032;52.542;13.440;2023-05-07T01:44:55;10.80;99.90
2054;DHT22;1032;52.542;13.440;2023-05-07T01:47:23;11.00;99.90
2054;DHT22;1032;52.542;13.440;2023-05-07T01:49:50;10.70;99.90
2054;DHT22;1032;52.542;13.440;2023-05-07T01:52:17;10.80;99.90
2054;DHT22;1032;52.542;13.440;2023-05-07T01:54:44;10.50;99.90
2054;DHT22;1032;52.542;13.440;2023-05-07T01:57:12;10.10;99.90
2054;DHT22;1032;52.542;13.440;2023-05-07T01:59:39;10.60;99.90
2054;DHT22;1032;52.542;13.440;2023-05-07T02:02:05;10.40;99.90
2054;DHT22;1032;52.542;13.440;2023-05-07T02:04:33;10.50;99.90
2054;DHT22;1032;52.542;13.440;2023-05-07T02:07:00;11.00;99.90
2054;DHT22;1032;52.542;13.440;2023-05-07T02:09:28;10.60;99.90
2054;DHT22;1032;52.542;13.440;2023-05-07T02:11:55;10.70;99.90
2054;DHT22;1032;52.542;13.440;2023-05-07T02:14:24;10.40;99.90
2054;DHT22;1032;52.542;13.440;2023-05-07T02:16:51;10.50;99.90
2054;DHT22;1032;52.542;13.440;2023-05-07T02:19:18;10.20;99.90
2054;DHT22;1032;52.542;13.440;2023-05-07T02:21:46;10.60;99.90
2054;DHT22;1032;52.542;13.440;2023-05-07T02:24:13;10.10;99.90
2054;DHT22;1032;52.542;13.440;2023-05-07T02:26:39;10.80;99.90
2054;DHT22;1032;52.542;13.440;2023-05-07T02:29:06;10.30;99.90
2054;DHT22;1032;52.542;13.440;2023-05-07T02:31:34;10.60;99.90
2054;DHT22;1032;52.542;13.440;2023-05-07T02:34:01;10.50;99.90
2054;DHT22;1032;52.542;13.440;2023-05-07T02:36:27;10.50;99.90
2054;DHT22;1032;52.542;13.440;2023-05-07T02:39:01;10.40;99.90
2054;DHT22;1032;52.542;13.440;2023-05-07T02:41:28;11.00;99.90
2054;DHT22;1032;52.542;13.440;2023-05-07T02:43:54;10.30;99.90
2054;DHT22;1032;52.542;13.440;2023-05-07T02:46:21;10.40;99.90
2054;DHT22;1032;52.542;13.440;2023-05-07T02:48:57;10.70;99.90
2054;DHT22;1032;52.542;13.440;2023-05-07T02:51:25;10.40;99.90
2054;DHT22;1032;52.542;13.440;2023-05-07T02:53:55;10.70;99.90
2054;DHT22;1032;52.542;13.440;2023-05-07T02:56:22;10.20;99.90
2054;DHT22;1032;52.542;13.440;2023-05-07T02:58:48;10.60;99.90
2054;DHT22;1032;52.542;13.440;2023-05-07T03:01:16;10.80;99.90
2054;DHT22;1032;52.542;13.440;2023-05-07T03:03:53;10.50;99.90
2054;DHT22;1032;52.542;13.440;2023-05-07T03:06:21;10.30;99.90
2054;DHT22;1032;52.542;13.440;2023-05-07T03:08:48;10.70;99.90
2054;DHT22;1032;52.542;13.440;2023-05-07T03:11:15;10.40;99.90
2054;DHT22;1032;52.542;13.440;2023-05-07T03:13:41;10.50;99.90
2054;DHT22;1032;52.542;13.440;2023-05-07T03:16:08;10.70;99.90
2054;DHT22;1032;52.542;13.440;2023-05-07T03:18:35;10.10;99.90
2054;DHT22;1032;52.542;13.440;2023-05-07T03:21:02;10.50;99.90
2054;DHT22;1032;52.542;13.440;2023-05-07T03:23:30;10.40;99.90
2054;DHT22;1032;52.542;13.440;2023-05-07T03:25:57;10.10;99.90
2054;DHT22;1032;52.542;13.440;2023-05-07T03:28:23;10.30;99.90
2054;DHT22;1032;52.542;13.440;2023-05-07T03:30:55;10.70;99.90
2054;DHT22;1032;52.542;13.440;2023-05-07T03:33:22;10.60;99.90
2054;DHT22;1032;52.542;13.440;2023-05-07T03:35:49;10.80;99.90
2054;DHT22;1032;52.542;13.440;2023-05-07T03:38:20;10.40;99.90
2054;DHT22;1032;52.542;13.440;2023-05-07T03:40:48;10.30;99.90
2054;DHT22;1032;52.542;13.440;2023-05-07T03:43:15;10.50;99.90
2054;DHT22;1032;52.542;13.440;2023-05-07T03:45:47;10.70;99.90
2054;DHT22;1032;52.542;13.440;2023-05-07T03:48:18;10.60;99.90
2054;DHT22;1032;52.542;13.440;2023-05-07T03:50:46;10.60;99.90
2054;DHT22;1032;52.542;13.440;2023-05-07T03:53:14;10.60;99.90
2054;DHT22;1032;52.542;13.440;2023-05-07T03:55:41;10.40;99.90
2054;DHT22;1032;52.542;13.440;2023-05-07T03:58:09;10.40;99.90
2054;DHT22;1032;52.542;13.440;2023-05-07T04:00:36;10.00;99.90
2054;DHT22;1032;52.542;13.440;2023-05-07T04:03:10;10.40;99.90
2054;DHT22;1032;52.542;13.440;2023-05-07T04:05:37;10.40;99.90
2054;DHT22;1032;52.542;13.440;2023-05-07T04:08:04;10.40;99.90
2054;DHT22;1032;52.542;13.440;2023-05-07T04:10:37;10.40;99.90
2054;DHT22;1032;52.542;13.440;2023-05-07T04:13:09;10.60;99.90
2054;DHT22;1032;52.542;13.440;2023-05-07T04:15:36;10.30;99.90
2054;DHT22;1032;52.542;13.440;2023-05-07T04:18:06;10.50;99.90
2054;DHT22;1032;52.542;13.440;2023-05-07T04:20:34;10.40;99.90
2054;DHT22;1032;52.542;13.440;2023-05-07T04:23:02;10.50;99.90
2054;DHT22;1032;52.542;13.440;2023-05-07T04:25:29;10.60;99.90
2054;DHT22;1032;52.542;13.440;2023-05-07T04:28:04;10.10;99.90
2054;DHT22;1032;52.542;13.440;2023-05-07T04:30:32;10.60;99.90
2054;DHT22;1032;52.542;13.440;2023-05-07T04:33:01;10.80;99.90
2054;DHT22;1032;52.542;13.440;2023-05-07T04:35:29;10.50;99.90
2054;DHT22;1032;52.542;13.440;2023-05-07T04:37:57;10.90;99.90
2054;DHT22;1032;52.542;13.440;2023-05-07T04:40:24;10.90;99.90
2054;DHT22;1032;52.542;13.440;2023-05-07T04:42:50;10.40;99.90
2054;DHT22;1032;52.542;13.440;2023-05-07T04:45:19;10.40;99.90
2054;DHT22;1032;52.542;13.440;2023-05-07T04:47:48;10.40;99.90
2054;DHT22;1032;52.542;13.440;2023-05-07T04:50:15;10.60;99.90
2054;DHT22;1032;52.542;13.440;2023-05-07T04:52:43;10.70;99.90
2054;DHT22;1032;52.542;13.440;2023-05-07T04:55:11;10.60;99.90
2054;DHT22;1032;52.542;13.440;2023-05-07T04:57:39;10.70;99.90
2054;DHT22;1032;52.542;13.440;2023-05-07T05:00:08;10.60;99.90
2054;DHT22;1032;52.542;13.440;2023-05-07T05:02:37;10.50;99.90
2054;DHT22;1032;52.542;13.440;2023-05-07T05:05:06;10.00;99.90
2054;DHT22;1032;52.542;13.440;2023-05-07T05:07:33;10.60;99.90
2054;DHT22;1032;52.542;13.440;2023-05-07T05:10:01;10.80;99.90
2054;DHT22;1032;52.542;13.440;2023-05-07T05:12:30;10.80;99.90
2054;DHT22;1032;52.542;13.440;2023-05-07T05:14:59;10.50;99.90
2054;DHT22;1032;52.542;13.440;2023-05-07T05:17:25;10.90;99.90
2054;DHT22;1032;52.542;13.440;2023-05-07T05:19:52;10.50;99.90
2054;DHT22;1032;52.542;13.440;2023-05-07T05:22:20;11.10;99.90
2054;DHT22;1032;52.542;13.440;2023-05-07T05:24:47;11.10;99.90
2054;DHT22;1032;52.542;13.440;2023-05-07T05:27:13;10.90;99.90
2054;DHT22;1032;52.542;13.440;2023-05-07T05:29:40;10.90;99.90
2054;DHT22;1032;52.542;13.440;2023-05-07T05:32:07;11.00;99.90
2054;DHT22;1032;52.542;13.440;2023-05-07T05:34:34;10.90;99.90
2054;DHT22;1032;52.542;13.440;2023-05-07T05:37:02;11.20;99.90
2054;DHT22;1032;52.542;13.440;2023-05-07T05:39:30;11.30;99.90
2054;DHT22;1032;52.542;13.440;2023-05-07T05:41:57;10.90;99.90
2054;DHT22;1032;52.542;13.440;2023-05-07T05:44:24;11.50;99.90
2054;DHT22;1032;52.542;13.440;2023-05-07T05:46:51;11.70;99.90
2054;DHT22;1032;52.542;13.440;2023-05-07T05:49:21;11.30;99.90
2054;DHT22;1032;52.542;13.440;2023-05-07T05:51:48;11.80;99.90
2054;DHT22;1032;52.542;13.440;2023-05-07T05:54:15;11.60;99.90
2054;DHT22;1032;52.542;13.440;2023-05-07T05:56:44;11.70;99.90
2054;DHT22;1032;52.542;13.440;2023-05-07T05:59:10;11.60;99.90
2054;DHT22;1032;52.542;13.440;2023-05-07T06:01:38;11.90;99.90
2054;DHT22;1032;52.542;13.440;2023-05-07T06:04:06;12.40;99.90
2054;DHT22;1032;52.542;13.440;2023-05-07T06:06:33;12.50;99.90
2054;DHT22;1032;52.542;13.440;2023-05-07T06:09:01;12.60;99.90
2054;DHT22;1032;52.542;13.440;2023-05-07T06:11:35;12.30;99.90
2054;DHT22;1032;52.542;13.440;2023-05-07T06:14:03;12.60;99.90
2054;DHT22;1032;52.542;13.440;2023-05-07T06:16:30;12.10;99.90
2054;DHT22;1032;52.542;13.440;2023-05-07T06:18:57;12.60;99.90
2054;DHT22;1032;52.542;13.440;2023-05-07T06:21:24;12.40;99.90
2054;DHT22;1032;52.542;13.440;2023-05-07T06:23:51;12.50;99.90
2054;DHT22;1032;52.542;13.440;2023-05-07T06:26:17;12.80;99.90
2054;DHT22;1032;52.542;13.440;2023-05-07T06:28:46;12.70;99.90
2054;DHT22;1032;52.542;13.440;2023-05-07T06:31:17;13.00;99.90
2054;DHT22;1032;52.542;13.440;2023-05-07T06:33:51;13.30;99.90
2054;DHT22;1032;52.542;13.440;2023-05-07T06:36:18;12.90;99.90
2054;DHT22;1032;52.542;13.440;2023-05-07T06:38:46;12.80;99.90
2054;DHT22;1032;52.542;13.440;2023-05-07T06:41:14;13.00;99.90
2054;DHT22;1032;52.542;13.440;2023-05-07T06:43:41;12.30;99.90
2054;DHT22;1032;52.542;13.440;2023-05-07T06:46:30;13.10;99.90
2054;DHT22;1032;52.542;13.440;2023-05-07T06:48:57;13.30;99.90
2054;DHT22;1032;52.542;13.440;2023-05-07T06:51:25;13.30;99.90
2054;DHT22;1032;52.542;13.440;2023-05-07T06:53:52;13.40;99.90
2054;DHT22;1032;52.542;13.440;2023-05-07T06:56:19;13.10;99.90
2054;DHT22;1032;52.542;13.440;2023-05-07T06:58:46;13.10;99.90
2054;DHT22;1032;52.542;13.440;2023-05-07T07:01:13;13.00;99.90
2054;DHT22;1032;52.542;13.440;2023-05-07T07:03:44;13.20;99.90
2054;DHT22;1032;52.542;13.440;2023-05-07T07:06:10;13.30;99.90
2054;DHT22;1032;52.542;13.440;2023-05-07T07:08:37;13.30;99.90
2054;DHT22;1032;52.542;13.440;2023-05-07T07:11:05;13.30;99.90
2054;DHT22;1032;52.542;13.440;2023-05-07T07:13:31;13.20;99.90
2054;DHT22;1032;52.542;13.440;2023-05-07T07:15:58;13.20;99.90
2054;DHT22;1032;52.542;13.440;2023-05-07T07:18:25;13.70;99.90
2054;DHT22;1032;52.542;13.440;2023-05-07T07:20:54;13.10;99.90
2054;DHT22;1032;52.542;13.440;2023-05-07T07:23:21;13.00;99.90
2054;DHT22;1032;52.542;13.440;2023-05-07T07:25:48;13.40;99.90
2054;DHT22;1032;52.542;13.440;2023-05-07T07:28:14;13.70;99.90
2054;DHT22;1032;52.542;13.440;2023-05-07T07:30:42;13.50;99.90
2054;DHT22;1032;52.542;13.440;2023-05-07T07:33:09;13.30;99.90
2054;DHT22;1032;52.542;13.440;2023-05-07T07:35:37;13.80;99.90
2054;DHT22;1032;52.542;13.440;2023-05-07T07:38:06;13.40;99.90
2054;DHT22;1032;52.542;13.440;2023-05-07T07:40:34;13.40;99.90
2054;DHT22;1032;52.542;13.440;2023-05-07T07:43:01;13.60;99.90
2054;DHT22;1032;52.542;13.440;2023-05-07T07:45:28;13.90;99.90
2054;DHT22;1032;52.542;13.440;2023-05-07T07:47:55;13.90;99.90
2054;DHT22;1032;52.542;13.440;2023-05-07T07:50:22;13.50;99.90
2054;DHT22;1032;52.542;13.440;2023-05-07T07:52:49;13.20;99.90
2054;DHT22;1032;52.542;13.440;2023-05-07T07:55:20;13.50;99.90
2054;DHT22;1032;52.542;13.440;2023-05-07T07:57:49;13.10;99.90
2054;DHT22;1032;52.542;13.440;2023-05-07T08:00:17;13.40;99.90
2054;DHT22;1032;52.542;13.440;2023-05-07T08:02:43;13.40;99.90
2054;DHT22;1032;52.542;13.440;2023-05-07T08:05:19;12.40;99.90
2054;DHT22;1032;52.542;13.440;2023-05-07T08:07:47;13.00;99.90
2054;DHT22;1032;52.542;13.440;2023-05-07T08:10:21;12.80;99.90
2054;DHT22;1032;52.542;13.440;2023-05-07T08:12:51;13.10;99.90
2054;DHT22;1032;52.542;13.440;2023-05-07T08:15:19;13.10;99.90
2054;DHT22;1032;52.542;13.440;2023-05-07T08:17:46;13.30;99.90
2054;DHT22;1032;52.542;13.440;2023-05-07T08:20:14;12.80;99.90
2054;DHT22;1032;52.542;13.440;2023-05-07T08:22:41;13.70;99.90
2054;DHT22;1032;52.542;13.440;2023-05-07T08:25:09;13.80;99.90
2054;DHT22;1032;52.542;13.440;2023-05-07T08:27:37;13.30;99.90
2054;DHT22;1032;52.542;13.440;2023-05-07T08:30:05;14.00;99.90
2054;DHT22;1032;52.542;13.440;2023-05-07T08:32:31;13.60;99.90
2054;DHT22;1032;52.542;13.440;2023-05-07T08:34:58;13.40;99.90
2054;DHT22;1032;52.542;13.440;2023-05-07T08:37:25;13.70;99.90
2054;DHT22;1032;52.542;13.440;2023-05-07T08:39:52;13.90;99.90
2054;DHT22;1032;52.542;13.440;2023-05-07T08:42:23;14.30;99.90
2054;DHT22;1032;52.542;13.440;2023-05-07T08:44:51;13.90;99.80
2054;DHT22;1032;52.542;13.440;2023-05-07T08:47:22;13.40;99.20
2054;DHT22;1032;52.542;13.440;2023-05-07T08:49:59;14.30;99.70
2054;DHT22;1032;52.542;13.440;2023-05-07T08:52:27;14.30;99.70
2054;DHT22;1032;52.542;13.440;2023-05-07T08:54:54;14.20;99.60
2054;DHT22;1032;52.542;13.440;2023-05-07T08:57:23;14.20;99.40
2054;DHT22;1032;52.542;13.440;2023-05-07T08:59:52;14.60;99.60
2054;DHT22;1032;52.542;13.440;2023-05-07T09:02:19;14.90;99.40
2054;DHT22;1032;52.542;13.440;2023-05-07T09:04:46;14.60;99.40
2054;DHT22;1032;52.542;13.440;2023-05-07T09:07:13;14.90;99.30
2054;DHT22;1032;52.542;13.440;2023-05-07T09:09:44;14.70;99.00
2054;DHT22;1032;52.542;13.440;2023-05-07T09:12:11;15.30;98.90
2054;DHT22;1032;52.542;13.440;2023-05-07T09:14:38;15.30;98.80
2054;DHT22;1032;52.542;13.440;2023-05-07T09:17:06;15.10;98.20
2054;DHT22;1032;52.542;13.440;2023-05-07T09:19:33;14.90;97.70
2054;DHT22;1032;52.542;13.440;2023-05-07T09:22:05;14.80;97.60
2054;DHT22;1032;52.542;13.440;2023-05-07T09:24:47;15.30;97.80
2054;DHT22;1032;52.542;13.440;2023-05-07T09:27:14;15.50;97.60
2054;DHT22;1032;52.542;13.440;2023-05-07T09:29:43;15.20;97.50
2054;DHT22;1032;52.542;13.440;2023-05-07T09:32:12;15.80;97.60
2054;DHT22;1032;52.542;13.440;2023-05-07T09:34:41;15.30;97.30
2054;DHT22;1032;52.542;13.440;2023-05-07T09:37:08;15.10;97.20
2054;DHT22;1032;52.542;13.440;2023-05-07T09:39:39;15.50;97.40
2054;DHT22;1032;52.542;13.440;2023-05-07T09:42:07;15.60;96.70
2054;DHT22;1032;52.542;13.440;2023-05-07T09:44:35;15.80;96.90
2054;DHT22;1032;52.542;13.440;2023-05-07T09:47:05;15.70;96.50
2054;DHT22;1032;52.542;13.440;2023-05-07T09:49:39;15.20;96.50
2054;DHT22;1032;52.542;13.440;2023-05-07T09:52:10;14.70;96.10
2054;DHT22;1032;52.542;13.440;2023-05-07T09:54:43;15.50;96.80
2054;DHT22;1032;52.542;13.440;2023-05-07T09:57:13;14.80;96.50
2054;DHT22;1032;52.542;13.440;2023-05-07T09:59:43;15.20;96.90
2054;DHT22;1032;52.542;13.440;2023-05-07T10:02:14;15.00;97.00
2054;DHT22;1032;52.542;13.440;2023-05-07T10:04:48;15.10;96.70
2054;DHT22;1032;52.542;13.440;2023-05-07T10:07:19;14.80;96.10
2054;DHT22;1032;52.542;13.440;2023-05-07T10:09:50;15.70;96.20
2054;DHT22;1032;52.542;13.440;2023-05-07T10:12:24;15.50;95.70
2054;DHT22;1032;52.542;13.440;2023-05-07T10:14:52;16.00;95.40
2054;DHT22;1032;52.542;13.440;2023-05-07T10:17:20;15.80;95.10
2054;DHT22;1032;52.542;13.440;2023-05-07T10:19:49;16.10;94.80
2054;DHT22;1032;52.542;13.440;2023-05-07T10:22:18;16.30;94.60
2054;DHT22;1032;52.542;13.440;2023-05-07T10:24:49;16.60;94.10
2054;DHT22;1032;52.542;13.440;2023-05-07T10:27:20;16.50;93.50
2054;DHT22;1032;52.542;13.440;2023-05-07T10:29:57;16.40;93.30
2054;DHT22;1032;52.542;13.440;2023-05-07T10:32:35;16.50;92.90
2054;DHT22;1032;52.542;13.440;2023-05-07T10:35:10;16.70;92.70
2054;DHT22;1032;52.542;13.440;2023-05-07T10:37:38;16.70;92.70
2054;DHT22;1032;52.542;13.440;2023-05-07T10:40:06;16.40;92.40
2054;DHT22;1032;52.542;13.440;2023-05-07T10:42:33;16.70;92.50
2054;DHT22;1032;52.542;13.440;2023-05-07T10:45:11;16.60;92.60
2054;DHT22;1032;52.542;13.440;2023-05-07T10:48:06;16.90;92.90
2054;DHT22;1032;52.542;13.440;2023-05-07T10:50:35;16.70;92.50
2054;DHT22;1032;52.542;13.440;2023-05-07T10:53:23;16.80;92.80
2054;DHT22;1032;52.542;13.440;2023-05-07T10:56:26;16.70;92.30
2054;DHT22;1032;52.542;13.440;2023-05-07T10:59:30;16.80;92.20
2054;DHT22;1032;52.542;13.440;2023-05-07T11:02:03;16.90;91.80
2054;DHT22;1032;52.542;13.440;2023-05-07T11:04:45;17.10;91.70
2054;DHT22;1032;52.542;13.440;2023-05-07T11:07:35;16.70;91.10
2054;DHT22;1032;52.542;13.440;2023-05-07T11:10:10;16.80;90.90
2054;DHT22;1032;52.542;13.440;2023-05-07T11:12:47;16.90;91.20
2054;DHT22;1032;52.542;13.440;2023-05-07T11:15:43;16.30;90.90
2054;DHT22;1032;52.542;13.440;2023-05-07T11:18:20;16.70;91.00
2054;DHT22;1032;52.542;13.440;2023-05-07T11:20:56;16.90;91.60
2054;DHT22;1032;52.542;13.440;2023-05-07T11:24:10;16.20;91.50
2054;DHT22;1032;52.542;13.440;2023-05-07T11:26:53;16.50;91.00
2054;DHT22;1032;52.542;13.440;2023-05-07T11:29:24;16.20;91.40
2054;DHT22;1032;52.542;13.440;2023-05-07T11:31:56;16.30;91.00
2054;DHT22;1032;52.542;13.440;2023-05-07T11:34:28;16.20;91.00
2054;DHT22;1032;52.542;13.440;2023-05-07T11:36:58;16.40;90.70
2054;DHT22;1032;52.542;13.440;2023-05-07T11:39:39;16.70;90.60
2054;DHT22;1032;52.542;13.440;2023-05-07T11:42:05;16.80;90.60
2054;DHT22;1032;52.542;13.440;2023-05-07T11:44:43;16.80;90.50
2054;DHT22;1032;52.542;13.440;2023-05-07T11:47:11;17.00;90.40
2054;DHT22;1032;52.542;13.440;2023-05-07T11:49:43;16.70;90.20
2054;DHT22;1032;52.542;13.440;2023-05-07T11:52:10;17.20;90.20
2054;DHT22;1032;52.542;13.440;2023-05-07T11:54:37;17.30;89.70
2054;DHT22;1032;52.542;13.440;2023-05-07T11:57:05;17.20;89.10
2054;DHT22;1032;52.542;13.440;2023-05-07T11:59:38;17.30;88.50
2054;DHT22;1032;52.542;13.440;2023-05-07T12:02:05;17.70;89.20
2054;DHT22;1032;52.542;13.440;2023-05-07T12:04:32;17.20;88.30
2054;DHT22;1032;52.542;13.440;2023-05-07T12:06:59;17.40;88.10
2054;DHT22;1032;52.542;13.440;2023-05-07T12:09:26;17.20;87.90
2054;DHT22;1032;52.542;13.440;2023-05-07T12:11:53;17.30;88.30
2054;DHT22;1032;52.542;13.440;2023-05-07T12:14:27;17.10;87.20
2054;DHT22;1032;52.542;13.440;2023-05-07T12:16:53;17.40;87.20
2054;DHT22;1032;52.542;13.440;2023-05-07T12:19:20;16.80;87.00
2054;DHT22;1032;52.542;13.440;2023-05-07T12:21:48;16.80;87.40
2054;DHT22;1032;52.542;13.440;2023-05-07T12:24:14;16.90;88.10
2054;DHT22;1032;52.542;13.440;2023-05-07T12:26:41;16.50;87.70
2054;DHT22;1032;52.542;13.440;2023-05-07T12:29:08;16.40;88.00
2054;DHT22;1032;52.542;13.440;2023-05-07T12:31:36;16.70;88.90
2054;DHT22;1032;52.542;13.440;2023-05-07T12:34:03;16.70;88.70
2054;DHT22;1032;52.542;13.440;2023-05-07T12:36:37;16.70;87.90
2054;DHT22;1032;52.542;13.440;2023-05-07T12:39:04;17.00;87.90
2054;DHT22;1032;52.542;13.440;2023-05-07T12:41:36;16.90;88.10
2054;DHT22;1032;52.542;13.440;2023-05-07T12:44:04;16.70;87.50
2054;DHT22;1032;52.542;13.440;2023-05-07T12:46:31;16.60;87.40
2054;DHT22;1032;52.542;13.440;2023-05-07T12:49:00;16.50;87.10
2054;DHT22;1032;52.542;13.440;2023-05-07T12:51:27;16.30;87.40
2054;DHT22;1032;52.542;13.440;2023-05-07T12:53:56;16.80;87.60
2054;DHT22;1032;52.542;13.440;2023-05-07T12:56:23;16.40;87.00
2054;DHT22;1032;52.542;13.440;2023-05-07T12:58:50;16.80;87.40
2054;DHT22;1032;52.542;13.440;2023-05-07T13:01:16;16.70;86.40
2054;DHT22;1032;52.542;13.440;2023-05-07T13:03:48;16.80;86.40
2054;DHT22;1032;52.542;13.440;2023-05-07T13:06:16;16.60;86.40
2054;DHT22;1032;52.542;13.440;2023-05-07T13:08:43;17.00;87.00
2054;DHT22;1032;52.542;13.440;2023-05-07T13:11:11;16.70;86.60
2054;DHT22;1032;52.542;13.440;2023-05-07T13:13:39;16.80;86.60
2054;DHT22;1032;52.542;13.440;2023-05-07T13:16:07;16.60;86.20
2054;DHT22;1032;52.542;13.440;2023-05-07T13:18:35;16.80;86.10
2054;DHT22;1032;52.542;13.440;2023-05-07T13:21:02;16.90;85.80
2054;DHT22;1032;52.542;13.440;2023-05-07T13:23:30;17.00;86.10
2054;DHT22;1032;52.542;13.440;2023-05-07T13:25:56;16.70;85.50
2054;DHT22;1032;52.542;13.440;2023-05-07T13:28:24;16.70;85.60
2054;DHT22;1032;52.542;13.440;2023-05-07T13:30:51;16.70;85.30
2054;DHT22;1032;52.542;13.440;2023-05-07T13:33:18;16.80;85.30
2054;DHT22;1032;52.542;13.440;2023-05-07T13:35:45;16.70;84.30
2054;DHT22;1032;52.542;13.440;2023-05-07T13:38:12;16.80;83.90
2054;DHT22;1032;52.542;13.440;2023-05-07T13:40:39;16.60;84.00
2054;DHT22;1032;52.542;13.440;2023-05-07T13:43:06;16.80;84.30
2054;DHT22;1032;52.542;13.440;2023-05-07T13:45:33;16.90;84.20
2054;DHT22;1032;52.542;13.440;2023-05-07T13:48:00;16.90;84.30
2054;DHT22;1032;52.542;13.440;2023-05-07T13:50:27;16.90;84.00
2054;DHT22;1032;52.542;13.440;2023-05-07T13:52:55;16.90;83.40
2054;DHT22;1032;52.542;13.440;2023-05-07T13:55:23;17.00;83.30
2054;DHT22;1032;52.542;13.440;2023-05-07T13:57:56;17.10;83.30
2054;DHT22;1032;52.542;13.440;2023-05-07T14:00:24;17.10;83.30
2054;DHT22;1032;52.542;13.440;2023-05-07T14:02:51;17.00;83.50
2054;DHT22;1032;52.542;13.440;2023-05-07T14:05:18;16.90;83.50
2054;DHT22;1032;52.542;13.440;2023-05-07T14:07:46;16.70;82.70
2054;DHT22;1032;52.542;13.440;2023-05-07T14:10:14;16.90;83.10
2054;DHT22;1032;52.542;13.440;2023-05-07T14:12:41;16.80;83.40
2054;DHT22;1032;52.542;13.440;2023-05-07T14:15:09;16.70;83.60
2054;DHT22;1032;52.542;13.440;2023-05-07T14:17:36;17.10;82.90
2054;DHT22;1032;52.542;13.440;2023-05-07T14:20:04;17.20;82.60
2054;DHT22;1032;52.542;13.440;2023-05-07T14:22:32;16.90;81.10
2054;DHT22;1032;52.542;13.440;2023-05-07T14:24:59;17.40;81.70
2054;DHT22;1032;52.542;13.440;2023-05-07T14:27:25;17.30;81.50
2054;DHT22;1032;52.542;13.440;2023-05-07T14:29:53;17.30;81.30
2054;DHT22;1032;52.542;13.440;2023-05-07T14:32:21;17.70;81.30
2054;DHT22;1032;52.542;13.440;2023-05-07T14:34:48;17.70;80.90
2054;DHT22;1032;52.542;13.440;2023-05-07T14:37:15;17.50;79.30
2054;DHT22;1032;52.542;13.440;2023-05-07T14:39:43;17.10;78.10
2054;DHT22;1032;52.542;13.440;2023-05-07T14:42:09;17.80;78.50
2054;DHT22;1032;52.542;13.440;2023-05-07T14:44:37;17.70;78.40
2054;DHT22;1032;52.542;13.440;2023-05-07T14:47:05;17.70;77.90
2054;DHT22;1032;52.542;13.440;2023-05-07T14:49:33;17.80;77.00
2054;DHT22;1032;52.542;13.440;2023-05-07T14:52:00;18.00;76.90
2054;DHT22;1032;52.542;13.440;2023-05-07T14:54:27;18.00;77.60
2054;DHT22;1032;52.542;13.440;2023-05-07T14:56:55;17.90;77.50
2054;DHT22;1032;52.542;13.440;2023-05-07T14:59:22;17.60;77.40
2054;DHT22;1032;52.542;13.440;2023-05-07T15:01:50;17.90;78.70
2054;DHT22;1032;52.542;13.440;2023-05-07T15:04:17;17.70;79.10
2054;DHT22;1032;52.542;13.440;2023-05-07T15:06:45;17.70;79.00
2054;DHT22;1032;52.542;13.440;2023-05-07T15:09:12;17.40;78.90
2054;DHT22;1032;52.542;13.440;2023-05-07T15:11:39;17.30;79.60
2054;DHT22;1032;52.542;13.440;2023-05-07T15:14:06;17.90;79.50
2054;DHT22;1032;52.542;13.440;2023-05-07T15:16:33;17.60;78.90
2054;DHT22;1032;52.542;13.440;2023-05-07T15:19:00;17.70;78.50
2054;DHT22;1032;52.542;13.440;2023-05-07T15:21:27;17.90;78.10
2054;DHT22;1032;52.542;13.440;2023-05-07T15:23:55;17.90;78.00
2054;DHT22;1032;52.542;13.440;2023-05-07T15:26:22;17.80;78.00
2054;DHT22;1032;52.542;13.440;2023-05-07T15:28:49;17.50;78.00
2054;DHT22;1032;52.542;13.440;2023-05-07T15:31:15;17.80;78.70
2054;DHT22;1032;52.542;13.440;2023-05-07T15:33:42;17.60;78.30
2054;DHT22;1032;52.542;13.440;2023-05-07T15:36:10;17.50;78.80
2054;DHT22;1032;52.542;13.440;2023-05-07T15:38:36;17.30;78.20
2054;DHT22;1032;52.542;13.440;2023-05-07T15:41:04;17.60;77.90
2054;DHT22;1032;52.542;13.440;2023-05-07T15:43:31;17.70;78.40
2054;DHT22;1032;52.542;13.440;2023-05-07T15:45:57;17.40;78.30
2054;DHT22;1032;52.542;13.440;2023-05-07T15:48:25;17.50;78.50
2054;DHT22;1032;52.542;13.440;2023-05-07T15:50:52;17.00;77.40
2054;DHT22;1032;52.542;13.440;2023-05-07T15:53:19;17.40;77.00
2054;DHT22;1032;52.542;13.440;2023-05-07T15:55:45;17.00;76.40